Time;durP1;ratioP1;P1;durP2;ratioP2;P2;SDS_P1;SDS_P2;PMS_P1;PMS_P2;Temp;Humidity;BMP_temperature;BMP_pressure;BME280_temperature;BME280_humidity;BME280_pressure;Samples;Min_cycle;Max_cycle;Signal;HPM_P1;HPM_P2
2023/12/24 00:01:11;;;;;;;16.15;4.45;;;;;;;8.98;100.00;100731.06;5066064;28;20029;-60
2023/12/24 00:03:37;;;;;;;13.60;4.00;;;;;;;9.01;100.00;100739.56;5043989;28;20108;-63
2023/12/24 00:06:03;;;;;;;14.52;4.57;;;;;;;8.99;100.00;100738.22;5048343;28;20029;-60
2023/12/24 00:08:29;;;;;;;16.08;4.47;;;;;;;9.03;100.00;100731.00;5040648;28;20098;-61
2023/12/24 00:10:56;;;;;;;14.90;4.90;;;;;;;9.05;100.00;100731.53;5055891;28;20020;-60
2023/12/24 00:13:22;;;;;;;16.35;4.60;;;;;;;9.03;100.00;100744.78;5040992;28;20020;-61
2023/12/24 00:15:48;;;;;;;15.65;5.22;;;;;;;9.05;100.00;100756.34;5035490;28;20052;-63
2023/12/24 00:18:13;;;;;;;15.80;5.57;;;;;;;9.03;100.00;100748.34;5044970;28;20405;-63
2023/12/24 00:20:38;;;;;;;19.20;6.00;;;;;;;9.02;100.00;100757.75;5054455;28;20070;-65
2023/12/24 00:23:08;;;;;;;17.33;5.72;;;;;;;9.03;100.00;100764.09;5045100;28;20138;-63
2023/12/24 00:25:37;;;;;;;16.90;5.90;;;;;;;9.01;100.00;100752.53;5045435;28;20064;-63
2023/12/24 00:28:04;;;;;;;19.45;6.15;;;;;;;9.00;100.00;100742.63;5050751;28;20087;-62
2023/12/24 00:30:29;;;;;;;16.02;5.63;;;;;;;9.00;100.00;100745.38;5059663;28;20063;-63
2023/12/24 00:32:56;;;;;;;19.02;6.15;;;;;;;9.02;100.00;100738.44;5048955;28;20049;-62
2023/12/24 00:35:22;;;;;;;16.92;5.65;;;;;;;9.02;100.00;100738.44;5042311;28;20048;-63
2023/12/24 00:37:48;;;;;;;15.80;5.57;;;;;;;9.07;100.00;100714.66;5048836;28;20100;-63
2023/12/24 00:40:14;;;;;;;15.32;4.75;;;;;;;9.10;100.00;100712.13;5039830;28;20029;-60
2023/12/24 00:42:39;;;;;;;13.95;4.70;;;;;;;9.11;100.00;100707.44;5045747;28;20443;-61
2023/12/24 00:45:05;;;;;;;17.08;5.07;;;;;;;9.06;100.00;100719.38;5041375;28;20449;-62
2023/12/24 00:47:31;;;;;;;13.07;4.20;;;;;;;9.08;100.00;100691.47;5040494;28;20036;-60
2023/12/24 00:49:56;;;;;;;12.82;4.03;;;;;;;9.07;100.00;100679.59;5045679;28;20053;-62
2023/12/24 00:52:21;;;;;;;15.38;4.15;;;;;;;9.09;100.00;100660.78;5044037;28;20417;-61
2023/12/24 00:54:47;;;;;;;13.35;4.20;;;;;;;9.05;100.00;100657.00;5041058;28;20021;-61
2023/12/24 00:57:13;;;;;;;14.20;3.83;;;;;;;9.04;100.00;100644.34;5053109;28;20038;-62
2023/12/24 00:59:38;;;;;;;12.43;3.63;;;;;;;8.99;100.00;100636.97;5054264;28;20013;-61
2023/12/24 01:02:03;;;;;;;14.32;3.70;;;;;;;8.98;100.00;100620.69;5046171;28;20192;-61
2023/12/24 01:04:28;;;;;;;9.98;2.90;;;;;;;8.96;100.00;100621.00;5063317;28;20041;-61
2023/12/24 01:06:54;;;;;;;11.05;3.22;;;;;;;8.92;100.00;100614.47;5039504;28;20033;-61
2023/12/24 01:09:19;;;;;;;9.13;2.78;;;;;;;8.96;100.00;100593.41;5047976;28;20041;-62
2023/12/24 01:11:44;;;;;;;9.77;2.70;;;;;;;8.99;100.00;100609.38;5050345;28;20379;-63
2023/12/24 01:14:10;;;;;;;8.68;2.47;;;;;;;9.00;100.00;100611.00;5054562;28;20034;-62
2023/12/24 01:16:39;;;;;;;9.98;2.58;;;;;;;9.00;100.00;100612.94;5039399;28;20064;-63
2023/12/24 01:19:05;;;;;;;13.63;2.92;;;;;;;9.00;100.00;100610.16;5045052;28;20192;-63
2023/12/24 01:21:30;;;;;;;11.27;2.80;;;;;;;9.03;100.00;100617.84;5038666;28;20463;-63
2023/12/24 01:23:55;;;;;;;7.95;2.72;;;;;;;9.01;100.00;100611.81;5043977;28;20075;-64
2023/12/24 01:26:21;;;;;;;17.48;3.53;;;;;;;9.03;100.00;100609.59;5049240;28;20025;-64
2023/12/24 01:28:46;;;;;;;7.88;2.90;;;;;;;9.03;100.00;100615.09;5048381;28;20017;-62
2023/12/24 01:31:11;;;;;;;12.80;3.33;;;;;;;9.06;100.00;100611.75;5049892;28;20036;-62
2023/12/24 01:33:36;;;;;;;11.25;3.47;;;;;;;9.04;100.00;100619.50;5042546;28;20475;-64
2023/12/24 01:36:02;;;;;;;12.68;3.35;;;;;;;9.05;100.00;100613.66;5036165;28;20275;-62
2023/12/24 01:38:27;;;;;;;12.43;3.25;;;;;;;9.11;100.00;100614.41;5037600;28;20528;-63
2023/12/24 01:40:52;;;;;;;15.27;3.80;;;;;;;9.08;100.00;100615.00;5041104;28;20426;-62
2023/12/24 01:43:18;;;;;;;12.57;3.40;;;;;;;9.07;100.00;100612.56;5043137;28;20473;-63
2023/12/24 01:45:43;;;;;;;16.05;3.50;;;;;;;9.03;100.00;100617.84;5040531;28;20030;-62
2023/12/24 01:48:09;;;;;;;15.35;3.65;;;;;;;9.02;100.00;100621.72;5044880;28;20377;-62
2023/12/24 01:50:35;;;;;;;15.80;3.60;;;;;;;9.05;100.00;100621.16;5047493;28;20119;-63
2023/12/24 01:53:02;;;;;;;13.85;3.72;;;;;;;8.99;100.00;100619.56;5050126;28;20035;-63
2023/12/24 01:55:28;;;;;;;13.00;3.88;;;;;;;8.98;100.00;100624.28;5045942;28;20477;-63
2023/12/24 01:57:53;;;;;;;18.38;3.58;;;;;;;9.01;100.00;100625.59;5039380;28;20048;-62
2023/12/24 02:00:19;;;;;;;14.18;3.35;;;;;;;9.00;100.00;100623.97;5035066;28;20053;-64
2023/12/24 02:02:45;;;;;;;15.13;3.20;;;;;;;9.01;100.00;100622.84;5038928;28;20021;-63
2023/12/24 02:05:11;;;;;;;16.30;3.42;;;;;;;8.95;100.00;100627.63;5045577;28;20033;-62
2023/12/24 02:07:37;;;;;;;12.50;3.00;;;;;;;8.87;100.00;100609.84;5040641;28;20094;-63
2023/12/24 02:10:03;;;;;;;13.30;3.30;;;;;;;8.90;100.00;100623.00;5039684;28;20079;-62
2023/12/24 02:12:28;;;;;;;15.55;3.13;;;;;;;8.88;100.00;100618.91;5040972;28;20536;-63
2023/12/24 02:14:54;;;;;;;14.85;3.13;;;;;;;8.87;100.00;100606.25;5039041;28;20022;-63
2023/12/24 02:17:22;;;;;;;13.95;3.35;;;;;;;8.91;100.00;100607.31;5042157;28;20040;-65
2023/12/24 02:19:47;;;;;;;14.73;3.55;;;;;;;8.86;100.00;100594.41;5042393;28;20026;-63
2023/12/24 02:22:12;;;;;;;14.70;3.58;;;;;;;8.87;100.00;100595.22;5048099;28;20120;-63
2023/12/24 02:24:38;;;;;;;12.45;3.72;;;;;;;8.91;100.00;100579.72;5040210;28;20040;-63
2023/12/24 02:27:26;;;;;;;13.40;3.38;;;;;;;8.82;100.00;100571.28;5036733;28;20033;-62
2023/12/24 02:29:56;;;;;;;14.70;3.83;;;;;;;8.88;100.00;100581.09;5042095;28;20048;-62
2023/12/24 02:32:25;;;;;;;15.18;3.80;;;;;;;8.81;100.00;100575.16;5040935;28;20446;-63
2023/12/24 02:34:51;;;;;;;16.02;4.22;;;;;;;8.85;100.00;100580.91;5042640;28;20029;-62
2023/12/24 02:37:16;;;;;;;13.20;3.97;;;;;;;8.84;100.00;100577.31;5042013;28;20025;-61
2023/12/24 02:39:42;;;;;;;17.55;4.20;;;;;;;8.84;100.00;100571.81;5040993;28;20051;-62
2023/12/24 02:42:08;;;;;;;15.38;3.95;;;;;;;8.82;100.00;100562.22;5051425;28;20025;-62
2023/12/24 02:44:35;;;;;;;18.02;4.38;;;;;;;8.78;100.00;100556.47;5042426;28;20040;-65
2023/12/24 02:47:00;;;;;;;16.75;3.90;;;;;;;8.78;100.00;100555.66;5052529;28;20079;-63
2023/12/24 02:49:26;;;;;;;13.93;3.92;;;;;;;8.76;100.00;100544.09;5049956;28;20029;-62
2023/12/24 02:51:51;;;;;;;17.23;3.53;;;;;;;8.71;100.00;100543.06;5039150;28;20063;-62
2023/12/24 02:54:16;;;;;;;13.40;3.53;;;;;;;8.72;100.00;100543.88;5045424;28;20034;-62
2023/12/24 02:56:42;;;;;;;14.68;3.38;;;;;;;8.72;100.00;100532.84;5045383;28;20035;-63
2023/12/24 02:59:07;;;;;;;14.00;3.67;;;;;;;8.69;100.00;100545.28;5042937;28;20112;-63
2023/12/24 03:01:32;;;;;;;16.33;3.72;;;;;;;8.74;100.00;100542.44;5057011;28;20021;-62
2023/12/24 03:04:02;;;;;;;13.77;3.50;;;;;;;8.72;100.00;100546.63;5037936;28;20025;-64
2023/12/24 03:06:28;;;;;;;12.13;3.30;;;;;;;8.71;100.00;100545.00;5050999;28;20037;-64
2023/12/24 03:08:53;;;;;;;13.43;3.58;;;;;;;8.74;100.00;100531.41;5039117;28;20028;-63
2023/12/24 03:11:18;;;;;;;16.67;3.90;;;;;;;8.71;100.00;100539.47;5046508;28;20037;-63
2023/12/24 03:13:43;;;;;;;16.77;3.90;;;;;;;8.72;100.00;100530.09;5036142;28;20141;-63
2023/12/24 03:16:09;;;;;;;13.85;3.95;;;;;;;8.70;100.00;100524.03;5047469;28;20036;-61
2023/12/24 03:18:34;;;;;;;14.80;3.70;;;;;;;8.72;100.00;100505.25;5042301;28;21397;-61
2023/12/24 03:21:00;;;;;;;12.48;3.42;;;;;;;8.73;100.00;100517.94;5047550;28;20037;-61
2023/12/24 03:23:26;;;;;;;12.45;3.45;;;;;;;8.71;100.00;100504.44;5045621;28;20037;-62
2023/12/24 03:25:51;;;;;;;10.88;3.55;;;;;;;8.71;100.00;100498.09;5036171;28;20037;-62
2023/12/24 03:28:17;;;;;;;13.82;3.38;;;;;;;8.67;100.00;100497.91;5043880;28;20059;-62
2023/12/24 03:30:42;;;;;;;11.98;3.17;;;;;;;8.66;100.00;100484.41;5047677;28;20060;-61
2023/12/24 03:33:07;;;;;;;9.13;2.78;;;;;;;8.69;100.00;100490.16;5046360;28;20029;-62
2023/12/24 03:35:33;;;;;;;11.82;2.88;;;;;;;8.65;100.00;100483.59;5043312;28;20075;-63
2023/12/24 03:37:58;;;;;;;10.27;3.03;;;;;;;8.70;100.00;100488.19;5039874;28;20377;-62
2023/12/24 03:40:23;;;;;;;12.88;3.50;;;;;;;8.70;100.00;100488.19;5051624;28;20021;-63
2023/12/24 03:42:48;;;;;;;9.27;3.13;;;;;;;8.69;100.00;100481.88;5056469;28;20060;-63
2023/12/24 03:45:14;;;;;;;15.65;3.70;;;;;;;8.74;100.00;100467.16;5049760;28;20025;-62
2023/12/24 03:47:39;;;;;;;12.13;3.50;;;;;;;8.73;100.00;100463.59;5051449;28;20052;-62
2023/12/24 03:50:05;;;;;;;12.70;3.35;;;;;;;8.69;100.00;100464.53;5041525;28;20026;-61
2023/12/24 03:52:31;;;;;;;13.90;3.47;;;;;;;8.72;100.00;100461.97;5047731;28;20114;-62
2023/12/24 03:54:56;;;;;;;13.70;3.30;;;;;;;8.73;100.00;100460.84;5048686;28;20025;-63
2023/12/24 03:57:21;;;;;;;10.65;3.00;;;;;;;8.75;100.00;100471.56;5051278;28;20048;-63
2023/12/24 03:59:47;;;;;;;11.50;2.47;;;;;;;8.75;100.00;100471.56;5052833;28;20441;-62
2023/12/24 04:02:12;;;;;;;10.55;2.45;;;;;;;8.78;100.00;100459.94;5045668;28;20032;-62
2023/12/24 04:04:37;;;;;;;9.30;2.50;;;;;;;8.77;100.00;100468.50;5052577;28;20025;-61
2023/12/24 04:07:03;;;;;;;8.73;2.60;;;;;;;8.77;100.00;100461.06;5049593;28;20842;-61
2023/12/24 04:09:31;;;;;;;9.50;2.83;;;;;;;8.80;100.00;100459.63;5045679;28;20519;-60
2023/12/24 04:11:56;;;;;;;9.68;2.50;;;;;;;8.82;100.00;100462.91;5044931;28;20111;-62
2023/12/24 04:14:22;;;;;;;7.45;2.30;;;;;;;8.79;100.00;100461.56;5049419;28;20100;-63
2023/12/24 04:16:47;;;;;;;9.82;2.58;;;;;;;8.84;100.00;100457.88;5052944;28;20060;-62
2023/12/24 04:19:12;;;;;;;4.38;1.98;;;;;;;8.83;100.00;100451.56;5045654;28;20045;-61
2023/12/24 04:21:37;;;;;;;7.15;2.15;;;;;;;8.83;100.00;100445.25;5056065;28;20018;-62
2023/12/24 04:24:04;;;;;;;5.20;2.00;;;;;;;8.84;100.00;100442.16;5049448;28;20044;-61
2023/12/24 04:26:30;;;;;;;5.78;1.90;;;;;;;8.84;100.00;100439.41;5049907;28;20033;-63
2023/12/24 04:28:55;;;;;;;3.42;1.70;;;;;;;8.82;100.00;100441.66;5051272;28;20021;-62
2023/12/24 04:31:21;;;;;;;7.35;1.88;;;;;;;8.81;100.00;100441.97;5041396;28;20024;-61
2023/12/24 04:33:46;;;;;;;3.65;1.50;;;;;;;8.83;100.00;100446.03;5038053;28;20446;-62
2023/12/24 04:36:19;;;;;;;6.38;1.95;;;;;;;8.82;100.00;100436.13;5037692;28;20083;-61
2023/12/24 04:38:44;;;;;;;4.45;1.40;;;;;;;8.86;100.00;100436.34;5039660;28;20615;-62
2023/12/24 04:41:19;;;;;;;5.60;1.73;;;;;;;8.88;100.00;100442.38;5040900;28;20119;-63
2023/12/24 04:43:45;;;;;;;4.93;1.70;;;;;;;8.87;100.00;100435.22;5044053;28;20033;-62
2023/12/24 04:46:11;;;;;;;5.05;1.70;;;;;;;8.87;100.00;100443.50;5038484;28;20071;-63
2023/12/24 04:48:36;;;;;;;5.20;2.03;;;;;;;8.89;100.00;100441.25;5038974;28;20666;-62
2023/12/24 04:51:01;;;;;;;5.50;1.83;;;;;;;8.89;100.00;100453.09;5039889;28;20103;-61
2023/12/24 04:53:27;;;;;;;4.35;1.80;;;;;;;8.89;100.00;100431.03;5038950;28;20044;-64
2023/12/24 04:55:54;;;;;;;5.65;1.77;;;;;;;8.93;100.00;100439.50;5043481;28;20025;-62
2023/12/24 04:58:20;;;;;;;5.07;2.10;;;;;;;8.93;100.00;100438.69;5046845;28;20073;-61
2023/12/24 05:00:45;;;;;;;4.70;1.83;;;;;;;8.90;100.00;100435.41;5040384;28;20330;-61
2023/12/24 05:03:10;;;;;;;4.30;1.85;;;;;;;8.90;100.00;100431.84;5042884;28;20098;-61
2023/12/24 05:05:35;;;;;;;5.13;1.88;;;;;;;8.94;100.00;100434.81;5044566;28;20104;-61
2023/12/24 05:08:01;;;;;;;5.82;2.10;;;;;;;8.92;100.00;100426.03;5046754;28;20477;-62
2023/12/24 05:10:27;;;;;;;4.88;1.92;;;;;;;8.92;100.00;100432.38;5044652;28;20090;-62
2023/12/24 05:12:52;;;;;;;6.38;1.90;;;;;;;8.92;100.00;100423.25;5045294;28;20449;-61
2023/12/24 05:15:18;;;;;;;7.60;2.10;;;;;;;8.92;100.00;100428.78;5045029;28;20102;-61
2023/12/24 05:17:43;;;;;;;4.88;1.70;;;;;;;8.94;100.00;100424.59;5042898;28;20064;-60
2023/12/24 05:20:09;;;;;;;4.25;1.70;;;;;;;8.94;100.00;100412.75;5046320;28;20022;-61
2023/12/24 05:22:34;;;;;;;4.93;1.90;;;;;;;8.94;100.00;100430.09;5046317;28;20075;-61
2023/12/24 05:24:59;;;;;;;6.60;2.08;;;;;;;8.95;100.00;100417.16;5042869;28;20079;-62
2023/12/24 05:27:24;;;;;;;5.38;2.00;;;;;;;8.96;100.00;100414.06;5040291;28;20446;-62
2023/12/24 05:29:50;;;;;;;4.78;1.80;;;;;;;8.95;100.00;100417.94;5044989;28;20029;-61
2023/12/24 05:32:15;;;;;;;4.25;1.85;;;;;;;8.96;100.00;100419.59;5039625;28;20036;-62
2023/12/24 05:34:40;;;;;;;4.68;1.75;;;;;;;8.98;100.00;100422.03;5045385;28;20040;-63
2023/12/24 05:37:06;;;;;;;6.25;2.20;;;;;;;9.00;100.00;100415.09;5046065;28;20503;-62
2023/12/24 05:39:31;;;;;;;4.50;2.00;;;;;;;9.00;100.00;100406.84;5041212;28;20640;-61
2023/12/24 05:41:56;;;;;;;4.72;1.85;;;;;;;9.00;100.00;100419.78;5042506;28;20097;-63
2023/12/24 05:44:22;;;;;;;5.43;1.90;;;;;;;9.01;100.00;100414.00;5039649;28;20053;-63
2023/12/24 05:46:53;;;;;;;5.47;1.90;;;;;;;9.03;100.00;100421.94;5038694;28;20033;-64
2023/12/24 05:49:18;;;;;;;5.35;1.95;;;;;;;9.02;100.00;100415.59;5037405;28;20045;-63
2023/12/24 05:51:44;;;;;;;5.88;2.10;;;;;;;9.02;100.00;100412.03;5036179;28;20060;-63
2023/12/24 05:54:09;;;;;;;5.22;2.03;;;;;;;9.00;100.00;100415.09;5040466;28;20056;-63
2023/12/24 05:56:34;;;;;;;6.00;2.10;;;;;;;9.05;100.00;100408.66;5039078;28;21380;-62
2023/12/24 05:59:00;;;;;;;4.57;1.95;;;;;;;9.06;100.00;100402.03;5040948;28;20025;-64
2023/12/24 06:01:25;;;;;;;4.32;1.70;;;;;;;9.03;100.00;100403.44;5039235;28;20479;-64
2023/12/24 06:03:50;;;;;;;6.15;2.03;;;;;;;9.04;100.00;100405.06;5040451;28;20396;-63
2023/12/24 06:06:15;;;;;;;4.97;1.83;;;;;;;9.09;100.00;100404.16;5046173;28;20112;-61
2023/12/24 06:08:41;;;;;;;7.43;2.15;;;;;;;9.12;100.00;100402.72;5036592;28;20090;-61
2023/12/24 06:11:14;;;;;;;4.53;1.92;;;;;;;9.04;100.00;100398.75;5035804;28;20469;-60
2023/12/24 06:13:40;;;;;;;3.63;1.77;;;;;;;9.08;100.00;100412.75;5049540;28;20017;-61
2023/12/24 06:16:06;;;;;;;5.75;1.88;;;;;;;9.10;100.00;100405.78;5047399;28;20087;-60
2023/12/24 06:18:31;;;;;;;7.22;2.22;;;;;;;9.09;100.00;100404.16;5044084;28;20190;-61
2023/12/24 06:20:57;;;;;;;5.70;2.00;;;;;;;9.14;100.00;100404.06;5040731;28;20172;-61
2023/12/24 06:23:22;;;;;;;8.13;2.10;;;;;;;9.14;100.00;100401.31;5039771;28;20035;-61
2023/12/24 06:25:47;;;;;;;6.40;2.10;;;;;;;9.11;100.00;100404.69;5040170;28;20419;-60
2023/12/24 06:28:13;;;;;;;7.25;2.20;;;;;;;9.13;100.00;100396.06;5051141;28;20483;-60
2023/12/24 06:30:39;;;;;;;6.82;2.22;;;;;;;9.16;100.00;100392.72;5040201;28;20531;-61
2023/12/24 06:33:04;;;;;;;7.85;2.30;;;;;;;9.14;100.00;100386.69;5044105;28;20607;-61
2023/12/24 06:35:29;;;;;;;6.57;2.10;;;;;;;9.16;100.00;100385.25;5045085;28;20094;-63
2023/12/24 06:37:55;;;;;;;4.95;1.90;;;;;;;9.16;100.00;100390.75;5046652;28;20020;-64
2023/12/24 06:40:20;;;;;;;5.20;2.00;;;;;;;9.16;100.00;100378.91;5052073;28;20077;-64
2023/12/24 06:42:45;;;;;;;5.65;2.10;;;;;;;9.16;100.00;100393.53;5041091;28;20385;-64
2023/12/24 06:45:10;;;;;;;7.60;2.20;;;;;;;9.17;100.00;100384.13;5044290;28;20037;-64
2023/12/24 06:47:36;;;;;;;12.57;3.67;;;;;;;9.17;100.00;100384.13;5038762;28;20037;-64
2023/12/24 06:50:01;;;;;;;6.50;2.22;;;;;;;9.18;100.00;100390.47;5043710;28;20148;-64
2023/12/24 06:52:26;;;;;;;7.72;2.28;;;;;;;9.20;100.00;100383.50;5041416;28;20049;-64
2023/12/24 06:54:52;;;;;;;7.88;2.53;;;;;;;9.19;100.00;100381.88;5036910;28;20405;-64
2023/12/24 06:57:17;;;;;;;7.88;2.75;;;;;;;9.19;100.00;100381.06;5040594;28;20420;-64
2023/12/24 06:59:42;;;;;;;8.43;2.33;;;;;;;9.21;100.00;100401.72;5040421;28;20029;-65
2023/12/24 07:02:08;;;;;;;9.60;3.10;;;;;;;9.21;100.00;100387.06;5043251;28;20039;-66
2023/12/24 07:04:34;;;;;;;7.05;2.42;;;;;;;9.20;100.00;100382.72;5043874;28;20039;-67
2023/12/24 07:06:59;;;;;;;10.60;2.85;;;;;;;9.25;100.00;100390.06;5047188;28;20420;-65
2023/12/24 07:09:24;;;;;;;9.90;2.92;;;;;;;9.25;100.00;100390.88;5047773;28;20033;-66
2023/12/24 07:11:50;;;;;;;5.95;2.40;;;;;;;9.28;100.00;100384.75;5042320;28;20029;-65
2023/12/24 07:14:15;;;;;;;8.88;3.08;;;;;;;9.28;100.00;100387.50;5042122;28;20040;-65
2023/12/24 07:16:40;;;;;;;13.13;3.83;;;;;;;9.29;100.00;100385.53;5041010;28;20029;-66
2023/12/24 07:19:08;;;;;;;10.30;3.00;;;;;;;9.31;100.00;100388.81;5042332;28;20033;-66
2023/12/24 07:21:33;;;;;;;9.57;3.05;;;;;;;9.31;100.00;100391.56;5044234;28;20041;-66
2023/12/24 07:23:58;;;;;;;7.80;2.70;;;;;;;9.32;100.00;100385.75;5040127;28;20184;-66
2023/12/24 07:26:24;;;;;;;10.30;3.05;;;;;;;9.34;100.00;100393.72;5043675;28;20084;-65
2023/12/24 07:28:49;;;;;;;9.73;2.67;;;;;;;9.33;100.00;100390.13;5040272;28;20060;-65
2023/12/24 07:31:14;;;;;;;9.57;2.85;;;;;;;9.32;100.00;100380.22;5040871;28;20060;-65
2023/12/24 07:33:40;;;;;;;8.35;3.03;;;;;;;9.32;100.00;100382.97;5044207;28;20445;-66
2023/12/24 07:36:06;;;;;;;8.30;2.95;;;;;;;9.33;100.00;100379.09;5041770;28;20086;-66
2023/12/24 07:38:31;;;;;;;11.23;3.05;;;;;;;9.35;100.00;100387.88;5040868;28;20036;-66
2023/12/24 07:40:57;;;;;;;8.45;2.85;;;;;;;9.38;100.00;100391.97;5039200;28;20017;-66
2023/12/24 07:43:22;;;;;;;10.80;3.00;;;;;;;9.38;100.00;100388.41;5041601;28;20029;-65
2023/12/24 07:45:48;;;;;;;9.02;2.90;;;;;;;9.40;100.00;100391.69;5042845;28;20075;-65
2023/12/24 07:48:13;;;;;;;8.68;2.97;;;;;;;9.40;100.00;100386.97;5040454;28;20353;-65
2023/12/24 07:50:39;;;;;;;12.98;3.80;;;;;;;9.42;100.00;100387.47;5036914;28;20100;-65
2023/12/24 07:53:04;;;;;;;13.13;3.80;;;;;;;9.41;100.00;100390.53;5046272;28;20079;-66
2023/12/24 07:55:29;;;;;;;8.85;3.30;;;;;;;9.42;100.00;100386.63;5044800;28;20066;-66
2023/12/24 07:57:55;;;;;;;13.25;3.20;;;;;;;9.43;100.00;100374.47;5037182;28;21507;-67
2023/12/24 08:00:21;;;;;;;12.55;3.60;;;;;;;9.41;100.00;100374.78;5038379;28;20707;-66
2023/12/24 08:02:46;;;;;;;11.95;3.70;;;;;;;9.45;100.00;100373.03;5038511;28;20025;-67
2023/12/24 08:05:12;;;;;;;12.38;3.30;;;;;;;9.46;100.00;100373.88;5037534;28;20499;-65
2023/12/24 08:07:37;;;;;;;9.35;2.80;;;;;;;9.49;100.00;100376.00;5039244;28;20013;-65
2023/12/24 08:10:03;;;;;;;10.98;3.00;;;;;;;9.49;100.00;100378.78;5042657;28;20032;-63
2023/12/24 08:12:28;;;;;;;12.95;3.47;;;;;;;9.48;100.00;100377.94;5042355;28;20068;-63
2023/12/24 08:14:53;;;;;;;9.35;2.95;;;;;;;9.51;100.00;100377.34;5041698;28;20037;-67
2023/12/24 08:17:19;;;;;;;9.07;2.72;;;;;;;9.54;100.00;100377.84;5043186;28;20159;-66
2023/12/24 08:19:44;;;;;;;8.43;3.05;;;;;;;9.52;100.00;100380.91;5040027;28;20488;-67
2023/12/24 08:22:11;;;;;;;8.52;2.72;;;;;;;9.58;100.00;100371.38;5042629;28;20032;-68
2023/12/24 08:24:36;;;;;;;8.88;2.65;;;;;;;9.54;100.00;100375.88;5053741;28;20059;-62
2023/12/24 08:27:02;;;;;;;8.80;2.78;;;;;;;9.53;100.00;100363.22;5033233;28;20671;-66
2023/12/24 08:29:27;;;;;;;9.80;2.90;;;;;;;9.54;100.00;100370.38;5057913;28;20058;-68
2023/12/24 08:31:55;;;;;;;9.48;2.92;;;;;;;9.53;100.00;100365.97;5034919;28;20067;-67
2023/12/24 08:34:21;;;;;;;9.48;3.13;;;;;;;9.53;100.00;100368.72;5051336;28;20052;-67
2023/12/24 08:36:46;;;;;;;10.00;3.00;;;;;;;9.54;100.00;100366.81;5038412;28;20065;-67
2023/12/24 08:39:12;;;;;;;9.85;2.95;;;;;;;9.52;100.00;100358.81;5038861;28;20448;-67
2023/12/24 08:41:37;;;;;;;10.40;2.92;;;;;;;9.56;100.00;100356.22;5047952;28;20028;-67
2023/12/24 08:44:03;;;;;;;9.45;2.95;;;;;;;9.58;100.00;100357.59;5042529;28;20037;-67
2023/12/24 08:46:28;;;;;;;9.27;3.20;;;;;;;9.58;100.00;100354.81;5034630;28;20026;-66
2023/12/24 08:48:54;;;;;;;9.38;2.90;;;;;;;9.62;100.00;100355.00;5031520;28;20068;-67
2023/12/24 08:51:19;;;;;;;9.82;3.30;;;;;;;9.62;100.00;100360.53;5031669;28;20112;-67
2023/12/24 08:53:44;;;;;;;9.95;3.20;;;;;;;9.65;100.00;100359.88;5040193;28;20041;-67
2023/12/24 08:56:09;;;;;;;12.07;3.67;;;;;;;9.65;100.00;100363.47;5059393;28;20036;-67
2023/12/24 08:58:35;;;;;;;13.15;3.90;;;;;;;9.65;100.00;100366.25;5048220;28;20060;-67
2023/12/24 09:01:00;;;;;;;9.82;3.22;;;;;;;9.67;100.00;100368.69;5048625;28;20086;-67
2023/12/24 09:03:25;;;;;;;11.88;3.30;;;;;;;9.68;100.00;100373.09;5048106;28;20389;-66
2023/12/24 09:05:51;;;;;;;9.05;3.10;;;;;;;9.72;100.00;100370.50;5048341;28;20040;-67
2023/12/24 09:08:16;;;;;;;8.98;2.83;;;;;;;9.74;100.00;100388.41;5048854;28;20078;-67
2023/12/24 09:10:42;;;;;;;9.50;2.97;;;;;;;9.76;100.00;100388.91;5048686;28;20029;-66
2023/12/24 09:13:07;;;;;;;8.43;2.80;;;;;;;9.80;100.00;100394.63;5060552;28;20052;-66
2023/12/24 09:15:33;;;;;;;10.45;2.80;;;;;;;9.77;100.00;100376.75;5069863;28;20357;-66
2023/12/24 09:17:58;;;;;;;9.40;2.80;;;;;;;9.83;100.00;100391.25;5069423;28;20387;-67
2023/12/24 09:20:24;;;;;;;7.70;2.53;;;;;;;9.84;100.00;100398.41;5069770;28;20035;-67
2023/12/24 09:22:49;;;;;;;9.70;2.70;;;;;;;9.81;100.00;100377.75;5069519;28;20068;-67
2023/12/24 09:25:14;;;;;;;7.97;2.63;;;;;;;9.82;100.00;100368.31;5069735;28;20470;-67
2023/12/24 09:27:40;;;;;;;9.75;3.13;;;;;;;9.88;100.00;100376.50;5069306;28;20032;-67
2023/12/24 09:30:05;;;;;;;7.45;2.63;;;;;;;9.88;100.00;100371.78;5066886;28;20028;-66
2023/12/24 09:32:31;;;;;;;11.30;3.35;;;;;;;9.88;100.00;100365.44;5055815;28;20074;-67
2023/12/24 09:34:57;;;;;;;10.30;3.08;;;;;;;9.91;100.00;100362.88;5051217;28;20475;-67
2023/12/24 09:37:23;;;;;;;8.27;2.70;;;;;;;9.90;100.00;100363.19;5057053;28;20025;-67
2023/12/24 09:39:49;;;;;;;8.70;2.72;;;;;;;9.92;100.00;100370.03;5056409;28;20036;-66
2023/12/24 09:42:14;;;;;;;8.75;2.80;;;;;;;9.92;100.00;100377.53;5049192;28;20029;-66
2023/12/24 09:44:39;;;;;;;8.43;2.80;;;;;;;9.90;100.00;100377.81;5050030;28;20029;-67
2023/12/24 09:47:05;;;;;;;10.30;2.97;;;;;;;9.91;100.00;100365.63;5047722;28;20021;-66
2023/12/24 09:49:30;;;;;;;10.75;3.20;;;;;;;9.94;100.00;100383.53;5049171;28;20401;-67
2023/12/24 09:51:58;;;;;;;11.10;3.15;;;;;;;9.92;100.00;100378.31;5050910;28;20476;-67
2023/12/24 09:54:24;;;;;;;11.50;3.08;;;;;;;9.92;100.00;100372.78;5057383;28;20041;-67
2023/12/24 09:56:49;;;;;;;12.00;3.08;;;;;;;10.01;100.00;100372.03;5062048;28;20060;-67
2023/12/24 09:59:14;;;;;;;10.32;3.08;;;;;;;9.99;100.00;100364.88;5054638;28;20138;-67
2023/12/24 10:01:49;;;;;;;11.05;3.00;;;;;;;10.02;100.00;100357.09;5058327;28;20476;-67
2023/12/24 10:04:14;;;;;;;10.63;3.08;;;;;;;9.98;100.00;100362.44;5060511;28;20097;-67
2023/12/24 10:06:54;;;;;;;12.02;3.33;;;;;;;10.01;100.00;100370.13;5050621;28;20036;-67
2023/12/24 10:09:23;;;;;;;14.05;3.80;;;;;;;10.01;100.00;100377.56;5064852;28;20020;-67
2023/12/24 10:12:05;;;;;;;16.77;4.10;;;;;;;10.04;100.00;100382.47;5069223;28;20039;-67
2023/12/24 10:14:31;;;;;;;17.42;4.70;;;;;;;10.02;100.00;100363.44;5068895;28;20036;-67
2023/12/24 10:16:59;;;;;;;18.33;5.18;;;;;;;10.04;100.00;100372.22;5069359;28;20444;-67
2023/12/24 10:19:25;;;;;;;19.65;6.05;;;;;;;10.08;100.00;100380.69;5069120;28;20098;-67
2023/12/24 10:22:05;;;;;;;20.02;6.90;;;;;;;10.09;100.00;100366.59;5069154;28;20107;-67
2023/12/24 10:24:38;;;;;;;21.65;6.45;;;;;;;10.16;100.00;100360.59;5069003;28;20029;-67
2023/12/24 10:27:04;;;;;;;21.67;7.97;;;;;;;10.15;100.00;100357.03;5069011;28;20039;-68
2023/12/24 10:29:30;;;;;;;25.42;8.88;;;;;;;10.21;100.00;100354.13;5069208;28;20028;-67
2023/12/24 10:31:55;;;;;;;25.42;10.85;;;;;;;10.21;100.00;100360.47;5071144;28;20036;-67
2023/12/24 10:34:21;;;;;;;23.27;8.82;;;;;;;10.22;100.00;100356.59;5073038;28;20330;-67
2023/12/24 10:36:46;;;;;;;26.70;9.75;;;;;;;10.23;100.00;100355.47;5065663;28;20029;-68
2023/12/24 10:39:17;;;;;;;25.38;9.93;;;;;;;10.28;100.00;100347.03;5053166;28;20029;-67
2023/12/24 10:41:42;;;;;;;25.83;10.65;;;;;;;10.32;100.00;100354.69;5053092;28;20457;-67
2023/12/24 10:44:07;;;;;;;27.85;11.32;;;;;;;10.30;100.00;100347.53;5052821;28;20032;-67
2023/12/24 10:46:33;;;;;;;26.75;11.27;;;;;;;10.37;100.00;100337.94;5051099;28;20021;-67
2023/12/24 10:48:58;;;;;;;27.23;12.40;;;;;;;10.41;100.00;100331.50;5052801;28;20056;-67
2023/12/24 10:51:24;;;;;;;27.38;12.05;;;;;;;10.42;100.00;100337.88;5056329;28;20036;-67
2023/12/24 10:53:49;;;;;;;26.58;12.07;;;;;;;10.44;100.00;100332.81;5061201;28;20453;-67
2023/12/24 10:56:22;;;;;;;27.35;12.10;;;;;;;10.42;100.00;100332.34;5050717;28;20032;-67
2023/12/24 10:58:57;;;;;;;26.42;11.52;;;;;;;10.48;100.00;100344.06;5052057;28;20045;-67
2023/12/24 11:01:22;;;;;;;27.63;12.48;;;;;;;10.49;100.00;100329.09;5040459;28;20051;-67
2023/12/24 11:03:49;;;;;;;28.65;12.15;;;;;;;10.51;100.00;100321.28;5073018;28;20020;-68
2023/12/24 11:06:36;;;;;;;24.88;10.38;;;;;;;10.57;100.00;100318.06;5072197;28;20377;-68
2023/12/24 11:09:06;;;;;;;25.30;10.90;;;;;;;10.61;100.00;100310.78;5072394;28;20404;-67
2023/12/24 11:11:52;;;;;;;26.15;11.75;;;;;;;10.62;100.00;100314.34;5067488;28;20439;-68
2023/12/24 11:14:40;;;;;;;24.85;9.73;;;;;;;10.62;100.00;100308.81;5050746;28;20036;-68